Pagina principale
METAR-TAF:

METAR-TAF

Aeroporti :

Aeroporto di Kasane

Kasane, Botswana

latitudine: 17-49S, longitudine: 025-09E, altezza: 968 m

Osservazione

Il bollettino è stato emesso 43 minuti fa, alle 06:00 UTC
Vento 11 kt da nord/nord-est, variando fra nord e est
Temperature 29°C
Umidità 52%
Pressione 1013 hPa
Visibilità 10 km o più
nessuna nube inferiore a 1500 m e nessun cumulonembo

METAR: FBKE 180600Z 03011KT 010V080 CAVOK 29/18 Q1013

Ora: 08:43 (06:43 UTC)

Previsione

Il bollettino è stato emesso 18 ore e 43 minuti fa, alle 12:00 UTC
Previsione valida dal 17 alle 15 UTC al 17 alle 24 UTC
Vento 2 kt da direzioni variabili
Visibilità 10 km o più
nessuna nube inferiore a 1500 m e nessun cumulonembo

TAF: FBKE 171200Z 1715/1724 VRB02KT CAVOK

Osservazioni e previsioni meteorologiche di più di 4000 aeroporti (messaggi METAR e TAF).

Le stazioni disponibili sono rappresentate dai dischi gialli e rossi sulla carta.

Puntare il mouse per vedere il nome della stazione.

Clicca sopra per visualizzare le osservazioni e previsioni meteorologiche.

Per cambiare la mappa : fare clic sui pulsanti verdi con una croce nera per ingrandire, il pulsante verde con un trattino per diminuire, o sulla freccia verde per le mappe adiacenti.


METAR-TAF: